createdAt,value
2023-05-22T00:01:08.779Z,16.23
2023-05-22T00:03:37.818Z,16.13
2023-05-22T00:06:10.208Z,14.87
2023-05-22T00:08:38.419Z,17.13
2023-05-22T00:11:07.408Z,14.67
2023-05-22T00:13:37.316Z,15.03
2023-05-22T00:16:11.687Z,18.43
2023-05-22T00:18:42.723Z,16.30
2023-05-22T00:21:10.860Z,15.03
2023-05-22T00:23:41.229Z,18.03
2023-05-22T00:26:09.108Z,15.67
2023-05-22T00:28:37.315Z,15.67
2023-05-22T00:31:07.873Z,14.67
2023-05-22T00:33:41.617Z,13.83
2023-05-22T00:36:12.149Z,13.20
2023-05-22T00:38:44.142Z,12.90
2023-05-22T00:41:12.090Z,13.53
2023-05-22T00:43:42.099Z,18.00
2023-05-22T00:46:12.877Z,14.53
2023-05-22T00:48:44.460Z,14.53
2023-05-22T00:51:15.440Z,14.03
2023-05-22T00:53:56.207Z,14.03
2023-05-22T00:56:24.569Z,15.13
2023-05-22T01:01:42.168Z,16.30
2023-05-22T01:04:13.457Z,13.70
2023-05-22T01:06:47.644Z,16.20
2023-05-22T01:09:25.372Z,17.10
2023-05-22T01:12:03.155Z,15.87
2023-05-22T01:14:41.871Z,13.70
2023-05-22T01:17:24.584Z,13.93
2023-05-22T01:20:07.282Z,13.83
2023-05-22T01:23:03.069Z,15.17
2023-05-22T01:25:55.311Z,14.07
2023-05-22T01:28:45.976Z,14.67
2023-05-22T01:31:19.472Z,14.13
2023-05-22T01:33:50.416Z,14.63
2023-05-22T01:36:23.991Z,14.90
2023-05-22T01:38:56.432Z,14.77
2023-05-22T01:41:25.882Z,15.53
2023-05-22T01:43:58.742Z,18.60
2023-05-22T01:46:37.184Z,14.83
2023-05-22T01:49:06.588Z,15.30
2023-05-22T01:51:46.561Z,14.80
2023-05-22T01:54:27.462Z,15.63
2023-05-22T01:57:07.308Z,15.07
2023-05-22T01:59:48.564Z,14.77
2023-05-22T02:02:23.160Z,18.27
2023-05-22T02:05:00.087Z,15.97
2023-05-22T02:07:34.708Z,16.53
2023-05-22T02:10:08.257Z,15.07
2023-05-22T02:12:37.888Z,15.43
2023-05-22T02:15:10.594Z,15.30
2023-05-22T02:17:41.478Z,15.77
2023-05-22T02:20:15.475Z,17.03
2023-05-22T02:22:44.925Z,15.40
2023-05-22T02:25:15.149Z,16.10
2023-05-22T02:27:45.757Z,16.20
2023-05-22T02:30:19.702Z,17.33
2023-05-22T02:32:53.765Z,15.63
2023-05-22T02:35:22.761Z,18.03
2023-05-22T02:37:50.807Z,18.23
2023-05-22T02:40:19.084Z,15.47
2023-05-22T02:42:49.278Z,16.10
2023-05-22T02:45:18.247Z,16.37
2023-05-22T02:47:46.825Z,15.10
2023-05-22T02:50:17.693Z,17.73
2023-05-22T02:52:46.539Z,18.60
2023-05-22T02:55:16.093Z,15.57
2023-05-22T02:57:46.759Z,16.83
2023-05-22T03:00:15.269Z,16.10
2023-05-22T03:02:44.962Z,16.37
2023-05-22T03:05:18.266Z,17.17
2023-05-22T03:07:48.994Z,15.97
2023-05-22T03:10:17.656Z,17.70
2023-05-22T03:12:48.324Z,19.70
2023-05-22T03:15:20.840Z,18.07
2023-05-22T03:17:48.732Z,16.03
2023-05-22T03:20:17.111Z,16.00
2023-05-22T03:22:45.345Z,18.23
2023-05-22T03:25:15.524Z,15.67
2023-05-22T03:27:43.375Z,18.23
2023-05-22T03:30:12.467Z,16.53
2023-05-22T03:32:40.996Z,16.63
2023-05-22T03:35:15.773Z,15.40
2023-05-22T03:37:43.580Z,17.90
2023-05-22T03:40:12.429Z,15.83
2023-05-22T03:42:42.432Z,17.03
2023-05-22T03:45:12.595Z,19.07
2023-05-22T03:47:43.890Z,16.30
2023-05-22T03:50:12.209Z,19.10
2023-05-22T03:52:41.934Z,16.60
2023-05-22T03:55:12.159Z,16.10
2023-05-22T03:57:41.598Z,17.30
2023-05-22T04:00:15.140Z,18.67
2023-05-22T04:02:46.938Z,16.97
2023-05-22T04:05:15.416Z,16.17
2023-05-22T04:07:48.316Z,16.33
2023-05-22T04:10:16.935Z,16.07
2023-05-22T04:12:47.521Z,16.73
2023-05-22T04:15:16.009Z,24.47
2023-05-22T04:17:44.421Z,19.43
2023-05-22T04:20:13.141Z,17.50
2023-05-22T04:22:41.598Z,21.57
2023-05-22T04:25:11.520Z,19.83
2023-05-22T04:27:40.730Z,17.40
2023-05-22T04:30:11.446Z,35.93
2023-05-22T04:32:39.694Z,19.43
2023-05-22T04:35:10.360Z,16.67
2023-05-22T04:37:40.806Z,16.30
2023-05-22T04:40:10.140Z,17.17
2023-05-22T04:42:39.219Z,24.40
2023-05-22T04:45:08.895Z,15.90
2023-05-22T04:47:41.728Z,15.17
2023-05-22T04:50:10.668Z,15.10
2023-05-22T04:52:41.970Z,17.07
2023-05-22T04:55:12.180Z,15.63
2023-05-22T04:57:40.998Z,14.63
2023-05-22T05:00:10.242Z,16.47
2023-05-22T05:02:40.240Z,16.17
2023-05-22T05:05:08.932Z,16.23
2023-05-22T05:07:38.824Z,15.20
2023-05-22T05:10:09.076Z,15.33
2023-05-22T05:12:39.103Z,19.30
2023-05-22T05:15:10.477Z,16.63
2023-05-22T05:17:40.259Z,14.97
2023-05-22T05:20:11.497Z,15.63
2023-05-22T05:22:40.476Z,15.63
2023-05-22T05:25:11.651Z,17.00
2023-05-22T05:27:40.090Z,15.10
2023-05-22T05:30:10.772Z,14.77
2023-05-22T05:32:42.092Z,14.17
2023-05-22T05:35:10.881Z,17.90
2023-05-22T05:37:42.031Z,14.40
2023-05-22T05:40:10.960Z,16.57
2023-05-22T05:42:41.163Z,16.87
2023-05-22T05:45:11.522Z,14.23
2023-05-22T05:47:41.447Z,13.33
2023-05-22T05:50:11.467Z,17.27
2023-05-22T05:52:39.782Z,13.40
2023-05-22T05:55:07.954Z,16.33
2023-05-22T05:57:38.667Z,15.47
2023-05-22T06:00:10.636Z,18.07
2023-05-22T06:02:41.012Z,13.77
2023-05-22T06:05:10.663Z,17.60
2023-05-22T06:07:40.593Z,13.10
2023-05-22T06:10:16.842Z,17.40
2023-05-22T06:12:44.925Z,15.20
2023-05-22T06:15:17.634Z,12.77
2023-05-22T06:17:47.470Z,16.93
2023-05-22T06:20:16.022Z,13.93
2023-05-22T06:22:44.180Z,12.83
2023-05-22T06:25:13.909Z,12.27
2023-05-22T06:27:42.817Z,11.20
2023-05-22T06:30:12.486Z,11.20
2023-05-22T06:32:58.240Z,13.40
2023-05-22T06:35:26.485Z,13.47
2023-05-22T06:37:58.986Z,12.67
2023-05-22T06:40:29.344Z,11.33
2023-05-22T06:42:59.989Z,15.83
2023-05-22T06:45:28.552Z,15.87
2023-05-22T06:47:59.174Z,19.53
2023-05-22T06:50:27.302Z,18.87
2023-05-22T06:53:01.447Z,13.67
2023-05-22T06:55:29.302Z,15.17
2023-05-22T06:57:57.108Z,11.50
2023-05-22T07:00:26.141Z,9.83
2023-05-22T07:02:54.496Z,14.27
2023-05-22T07:05:24.497Z,10.77
2023-05-22T07:07:52.578Z,16.03
2023-05-22T07:10:21.685Z,11.43
2023-05-22T07:12:49.936Z,11.10
2023-05-22T07:15:18.677Z,11.40
2023-05-22T07:17:49.226Z,11.63
2023-05-22T07:20:18.786Z,13.43
2023-05-22T07:22:49.804Z,18.17
2023-05-22T07:25:18.450Z,10.27
2023-05-22T07:27:48.289Z,10.53
2023-05-22T07:30:19.866Z,13.77
2023-05-22T07:32:49.727Z,12.33
2023-05-22T07:35:18.867Z,10.67
2023-05-22T07:37:53.259Z,10.87
2023-05-22T07:40:21.655Z,13.60
2023-05-22T07:42:50.075Z,10.77
2023-05-22T07:45:17.969Z,11.77
2023-05-22T07:47:47.263Z,15.07
2023-05-22T07:50:15.158Z,10.57
2023-05-22T07:52:44.313Z,12.20
2023-05-22T07:55:15.673Z,11.10
2023-05-22T07:57:44.340Z,11.73
2023-05-22T08:00:15.830Z,12.93
2023-05-22T08:02:45.737Z,11.68
2023-05-22T08:05:15.471Z,12.93
2023-05-22T08:07:44.682Z,13.40
2023-05-22T08:10:18.693Z,10.97
2023-05-22T08:12:46.539Z,13.23
2023-05-22T08:15:15.802Z,14.13
2023-05-22T08:17:45.945Z,11.07
2023-05-22T08:20:14.665Z,12.60
2023-05-22T08:22:46.504Z,12.90
2023-05-22T08:25:17.697Z,12.70
2023-05-22T08:27:48.897Z,11.40
2023-05-22T08:30:18.440Z,14.27
2023-05-22T08:32:48.485Z,12.80
2023-05-22T08:35:17.158Z,14.57
2023-05-22T08:37:46.241Z,12.50
2023-05-22T08:40:18.086Z,10.32
2023-05-22T08:42:46.267Z,12.32
2023-05-22T08:45:18.437Z,14.82
2023-05-22T08:47:53.858Z,10.82
2023-05-22T08:50:23.058Z,12.18
2023-05-22T08:52:54.074Z,10.55
2023-05-22T08:55:24.804Z,11.55
2023-05-22T08:57:55.377Z,13.85
2023-05-22T09:00:24.863Z,12.68
2023-05-22T09:02:56.194Z,10.80
2023-05-22T09:05:27.050Z,13.60
2023-05-22T09:07:58.396Z,13.00
2023-05-22T09:10:35.970Z,11.52
2023-05-22T09:13:08.876Z,11.57
2023-05-22T09:15:39.124Z,11.50
2023-05-22T09:18:07.981Z,11.13
2023-05-22T09:20:39.369Z,10.73
2023-05-22T09:23:17.720Z,12.32
2023-05-22T09:25:49.771Z,14.23
2023-05-22T09:28:20.612Z,14.35
2023-05-22T09:30:51.084Z,11.73
2023-05-22T09:33:19.304Z,12.60
2023-05-22T09:35:49.770Z,15.77
2023-05-22T09:38:19.188Z,11.40
2023-05-22T09:40:53.909Z,14.65
2023-05-22T09:43:23.797Z,12.52
2023-05-22T09:45:58.982Z,12.88
2023-05-22T09:48:27.881Z,12.00
2023-05-22T09:51:02.152Z,12.02
2023-05-22T09:53:35.028Z,14.52
2023-05-22T09:56:12.586Z,14.07
2023-05-22T09:58:47.133Z,14.52
2023-05-22T10:01:17.559Z,11.90
2023-05-22T10:03:53.244Z,12.50
2023-05-22T10:06:24.026Z,12.07
2023-05-22T10:08:58.224Z,12.18
2023-05-22T10:11:32.215Z,10.95
2023-05-22T10:14:01.849Z,18.33
2023-05-22T10:16:31.195Z,15.80
2023-05-22T10:19:04.300Z,11.48
2023-05-22T10:21:33.941Z,13.80
2023-05-22T10:24:06.552Z,11.48
2023-05-22T10:26:36.260Z,12.10
2023-05-22T10:29:12.951Z,14.48
2023-05-22T10:31:46.905Z,12.40
2023-05-22T10:34:32.696Z,13.35
2023-05-22T10:37:19.214Z,16.73
2023-05-22T10:40:07.283Z,12.13
2023-05-22T10:42:40.078Z,14.63
2023-05-22T10:45:09.500Z,9.90
2023-05-22T10:47:39.682Z,12.20
2023-05-22T10:50:12.810Z,11.80
2023-05-22T10:52:41.320Z,11.45
2023-05-22T10:55:12.318Z,12.98
2023-05-22T10:57:45.931Z,11.65
2023-05-22T11:00:20.037Z,12.27
2023-05-22T11:02:48.238Z,19.27
2023-05-22T11:05:38.903Z,13.63
2023-05-22T11:08:30.660Z,12.90
2023-05-22T11:11:01.918Z,15.27
2023-05-22T11:13:33.762Z,12.25
2023-05-22T11:16:06.805Z,13.73
2023-05-22T11:18:42.970Z,11.10
2023-05-22T11:21:16.304Z,14.40
2023-05-22T11:23:47.004Z,11.52
2023-05-22T11:26:28.007Z,10.52
2023-05-22T11:29:02.012Z,14.48
2023-05-22T11:31:36.259Z,13.75
2023-05-22T11:34:04.719Z,12.15
2023-05-22T11:36:33.883Z,10.00
2023-05-22T11:39:05.763Z,13.57
2023-05-22T11:41:34.880Z,11.68
2023-05-22T11:44:06.407Z,11.85
2023-05-22T11:46:40.424Z,12.35
2023-05-22T11:49:13.176Z,13.38
2023-05-22T11:51:45.746Z,10.63
2023-05-22T11:54:18.108Z,10.10
2023-05-22T11:56:49.316Z,14.32
2023-05-22T11:59:22.840Z,12.90
2023-05-22T12:01:53.210Z,12.02
2023-05-22T12:04:21.973Z,12.52
2023-05-22T12:06:50.289Z,10.68
2023-05-22T12:09:18.932Z,11.10
2023-05-22T12:11:49.069Z,11.65
2023-05-22T12:14:18.637Z,11.40
2023-05-22T12:16:46.436Z,12.77
2023-05-22T12:19:16.074Z,12.13
2023-05-22T12:21:46.320Z,15.43
2023-05-22T12:24:16.571Z,12.32
2023-05-22T12:26:51.385Z,14.20
2023-05-22T12:29:23.296Z,11.98
2023-05-22T12:31:52.574Z,13.18
2023-05-22T12:34:20.673Z,11.68
2023-05-22T12:36:49.587Z,11.27
2023-05-22T12:39:20.161Z,13.20
2023-05-22T12:41:48.326Z,15.40
2023-05-22T12:44:17.654Z,19.05
2023-05-22T12:46:47.799Z,13.02
2023-05-22T12:49:16.283Z,14.00
2023-05-22T12:51:45.420Z,14.27
2023-05-22T12:54:15.710Z,11.25
2023-05-22T12:56:45.479Z,12.73
2023-05-22T12:59:19.488Z,11.15
2023-05-22T13:01:51.714Z,13.40
2023-05-22T13:04:20.629Z,17.23
2023-05-22T13:06:48.556Z,11.35
2023-05-22T13:09:21.371Z,10.30
2023-05-22T13:11:50.521Z,11.50
2023-05-22T13:14:19.560Z,10.27
2023-05-22T13:16:47.822Z,10.32
2023-05-22T13:19:20.175Z,11.90
2023-05-22T13:21:48.825Z,11.27
2023-05-22T13:24:16.975Z,11.50
2023-05-22T13:26:44.836Z,10.90
2023-05-22T13:29:38.916Z,11.93
2023-05-22T13:32:10.454Z,10.95
2023-05-22T13:34:41.421Z,12.38
2023-05-22T13:37:10.963Z,14.23
2023-05-22T13:39:39.736Z,11.13
2023-05-22T13:42:08.313Z,11.65
2023-05-22T13:44:36.635Z,9.52
2023-05-22T13:47:06.150Z,11.73
2023-05-22T13:49:35.195Z,18.77
2023-05-22T13:52:07.451Z,15.18
2023-05-22T13:54:35.909Z,10.38
2023-05-22T13:57:10.424Z,8.95
2023-05-22T14:00:04.394Z,9.65
2023-05-22T14:02:32.426Z,9.55
2023-05-22T14:05:01.498Z,9.05
2023-05-22T14:07:31.219Z,9.88
2023-05-22T14:10:01.636Z,8.88
2023-05-22T14:12:37.196Z,8.93
2023-05-22T14:15:05.645Z,9.73
2023-05-22T14:17:35.078Z,10.20
2023-05-22T14:20:03.888Z,11.15
2023-05-22T14:22:47.897Z,12.32
2023-05-22T14:25:28.911Z,9.35
2023-05-22T14:27:58.684Z,13.35
2023-05-22T14:30:26.832Z,9.23
2023-05-22T14:32:56.412Z,8.77
2023-05-22T14:35:33.610Z,9.73
2023-05-22T14:38:04.910Z,8.30
2023-05-22T14:40:34.493Z,10.07
2023-05-22T14:43:04.861Z,7.45
2023-05-22T14:45:33.956Z,8.27
2023-05-22T14:48:03.717Z,9.30
2023-05-22T14:50:40.291Z,10.77
2023-05-22T14:53:16.258Z,9.00
2023-05-22T14:55:44.346Z,9.45
2023-05-22T14:58:13.170Z,11.68
2023-05-22T15:00:43.606Z,9.13
2023-05-22T15:03:13.579Z,9.20
2023-05-22T15:05:43.031Z,10.20
2023-05-22T15:08:14.184Z,9.88
2023-05-22T15:10:44.333Z,10.00
2023-05-22T15:13:23.614Z,9.55
2023-05-22T15:15:54.346Z,12.15
2023-05-22T15:18:25.307Z,12.77
2023-05-22T15:20:55.060Z,10.07
2023-05-22T15:23:26.592Z,8.50
2023-05-22T15:25:59.201Z,8.15
2023-05-22T15:28:27.952Z,12.25
2023-05-22T15:30:56.784Z,7.75
2023-05-22T15:33:30.062Z,10.88
2023-05-22T15:36:00.289Z,9.10
2023-05-22T15:38:31.153Z,6.20
2023-05-22T15:41:00.507Z,7.47
2023-05-22T15:43:30.919Z,6.95
2023-05-22T15:46:03.052Z,5.18
2023-05-22T15:48:32.417Z,5.32
2023-05-22T15:51:01.365Z,5.95
2023-05-22T15:53:32.422Z,6.70
2023-05-22T15:56:01.423Z,6.20
2023-05-22T15:58:30.435Z,7.75
2023-05-22T16:00:59.939Z,6.90
2023-05-22T16:03:29.524Z,7.25
2023-05-22T16:06:00.676Z,7.13
2023-05-22T16:08:32.184Z,13.98
2023-05-22T16:11:04.309Z,13.32
2023-05-22T16:13:34.788Z,15.82
2023-05-22T16:16:05.972Z,8.68
2023-05-22T16:18:40.679Z,8.00
2023-05-22T16:21:12.094Z,6.68
2023-05-22T16:23:43.536Z,6.97
2023-05-22T16:26:21.605Z,7.20
2023-05-22T16:28:52.054Z,6.18
2023-05-22T16:31:22.536Z,6.00
2023-05-22T16:33:53.299Z,7.30
2023-05-22T16:36:28.138Z,6.72
2023-05-22T16:38:57.249Z,6.70
2023-05-22T16:41:37.800Z,9.98
2023-05-22T16:44:09.341Z,8.27
2023-05-22T16:46:39.030Z,7.57
2023-05-22T16:49:08.465Z,7.53
2023-05-22T16:51:36.994Z,6.88
2023-05-22T16:54:07.628Z,10.80
2023-05-22T16:56:38.004Z,7.20
2023-05-22T16:59:12.383Z,7.63
2023-05-22T17:01:41.003Z,7.72
2023-05-22T17:04:14.789Z,7.90
2023-05-22T17:06:43.714Z,9.38
2023-05-22T17:09:14.653Z,9.20
2023-05-22T17:11:44.461Z,7.70
2023-05-22T17:14:14.680Z,8.35
2023-05-22T17:16:42.796Z,9.13
2023-05-22T17:19:13.536Z,9.90
2023-05-22T17:21:47.079Z,10.20
2023-05-22T17:24:17.333Z,9.67
2023-05-22T17:26:48.068Z,8.37
2023-05-22T17:29:16.745Z,7.82
2023-05-22T17:31:56.590Z,13.35
2023-05-22T17:34:25.790Z,9.80
2023-05-22T17:36:58.231Z,10.23
2023-05-22T17:39:36.946Z,9.75
2023-05-22T17:42:15.789Z,14.93
2023-05-22T17:44:47.830Z,19.73
2023-05-22T17:47:22.989Z,16.00
2023-05-22T17:49:54.227Z,19.87
2023-05-22T17:52:23.616Z,15.97
2023-05-22T17:54:53.314Z,14.10
2023-05-22T17:57:26.378Z,14.70
2023-05-22T17:59:56.336Z,15.83
2023-05-22T18:02:28.381Z,13.27
2023-05-22T18:04:59.768Z,11.40
2023-05-22T18:07:27.895Z,16.13
2023-05-22T18:09:58.472Z,15.13
2023-05-22T18:12:31.806Z,15.63
2023-05-22T18:15:00.610Z,15.10
2023-05-22T18:17:37.028Z,12.60
2023-05-22T18:20:09.242Z,14.57
2023-05-22T18:22:39.009Z,16.53
2023-05-22T18:25:07.977Z,14.07
2023-05-22T18:27:51.756Z,12.33
2023-05-22T18:30:23.274Z,15.50
2023-05-22T18:32:55.551Z,15.27
2023-05-22T18:35:25.785Z,14.37
2023-05-22T18:37:55.156Z,17.50
2023-05-22T18:40:24.445Z,13.53
2023-05-22T18:42:59.072Z,12.73
2023-05-22T18:45:29.033Z,12.00
2023-05-22T18:48:04.850Z,15.47
2023-05-22T18:50:40.799Z,13.70
2023-05-22T18:53:10.202Z,14.63
2023-05-22T18:55:38.659Z,13.83
2023-05-22T18:58:08.115Z,16.23
2023-05-22T19:00:39.947Z,17.47
2023-05-22T19:03:12.529Z,15.73
2023-05-22T19:05:45.714Z,11.83
2023-05-22T19:08:13.999Z,12.40
2023-05-22T19:10:46.049Z,14.27
2023-05-22T19:13:16.500Z,13.63
2023-05-22T19:15:47.122Z,16.50
2023-05-22T19:18:15.107Z,15.70
2023-05-22T19:20:47.623Z,13.93
2023-05-22T19:23:18.276Z,12.73
2023-05-22T19:25:50.352Z,13.33
2023-05-22T19:28:27.699Z,14.77
2023-05-22T19:31:05.678Z,16.40
2023-05-22T19:33:43.938Z,14.87
2023-05-22T19:36:12.995Z,15.80
2023-05-22T19:38:47.349Z,17.83
2023-05-22T19:41:17.015Z,15.47
2023-05-22T19:43:47.584Z,14.57
2023-05-22T19:46:16.992Z,10.13
2023-05-22T19:48:47.193Z,11.50
2023-05-22T19:51:21.154Z,9.00
2023-05-22T19:53:49.474Z,10.20
2023-05-22T19:56:20.333Z,7.97
2023-05-22T19:58:53.403Z,7.07
2023-05-22T20:01:24.311Z,7.60
2023-05-22T20:03:56.323Z,7.70
2023-05-22T20:06:24.625Z,6.40
2023-05-22T20:08:53.213Z,7.20
2023-05-22T20:11:22.248Z,10.73
2023-05-22T20:13:54.513Z,9.43
2023-05-22T20:16:26.873Z,7.67
2023-05-22T20:19:00.696Z,7.17
2023-05-22T20:21:28.626Z,9.90
2023-05-22T20:24:01.079Z,8.53
2023-05-22T20:26:31.588Z,11.30
2023-05-22T20:29:01.415Z,9.70
2023-05-22T20:31:29.427Z,10.20
2023-05-22T20:34:05.472Z,12.20
2023-05-22T20:36:40.814Z,14.37
2023-05-22T20:39:10.748Z,17.00
2023-05-22T20:41:43.224Z,14.87
2023-05-22T20:44:34.236Z,18.20
2023-05-22T20:47:03.252Z,20.50
2023-05-22T20:49:36.896Z,22.30
2023-05-22T20:52:06.193Z,23.43
2023-05-22T20:54:37.347Z,24.40
2023-05-22T20:57:08.900Z,25.60
2023-05-22T20:59:38.204Z,26.27
2023-05-22T21:02:07.285Z,22.50
2023-05-22T21:04:41.188Z,25.90
2023-05-22T21:07:11.415Z,26.97
2023-05-22T21:09:42.025Z,26.83
2023-05-22T21:12:13.690Z,33.33
2023-05-22T21:14:47.938Z,33.03
2023-05-22T21:17:20.218Z,35.30
2023-05-22T21:19:56.215Z,39.57
2023-05-22T21:22:24.545Z,42.80
2023-05-22T21:24:53.319Z,43.27
2023-05-22T21:27:23.535Z,48.60
2023-05-22T21:29:55.176Z,48.10
2023-05-22T21:32:28.140Z,50.73
2023-05-22T21:34:59.665Z,52.17
2023-05-22T21:37:28.052Z,52.60
2023-05-22T21:39:56.683Z,53.70
2023-05-22T21:42:26.427Z,57.53
2023-05-22T21:44:56.630Z,53.90
2023-05-22T21:47:25.281Z,58.93
2023-05-22T21:49:53.195Z,61.73
2023-05-22T21:52:22.500Z,67.03
2023-05-22T21:54:50.563Z,55.93
2023-05-22T21:57:19.312Z,60.07
2023-05-22T21:59:53.567Z,63.63
2023-05-22T22:02:25.452Z,64.53
2023-05-22T22:04:56.067Z,64.03
2023-05-22T22:07:25.987Z,64.60
2023-05-22T22:09:53.734Z,64.17
2023-05-22T22:12:24.820Z,65.53
2023-05-22T22:14:55.746Z,70.43
2023-05-22T22:17:33.326Z,64.70
2023-05-22T22:20:01.264Z,65.97
2023-05-22T22:22:30.777Z,63.30
2023-05-22T22:25:00.968Z,60.33
2023-05-22T22:27:29.252Z,64.53
2023-05-22T22:29:57.297Z,63.33
2023-05-22T22:32:27.446Z,65.03
2023-05-22T22:34:55.283Z,66.63
2023-05-22T22:37:24.859Z,62.20
2023-05-22T22:39:53.266Z,60.13
2023-05-22T22:42:22.049Z,59.97
2023-05-22T22:44:50.289Z,56.40
2023-05-22T22:47:18.745Z,57.13
2023-05-22T22:49:53.167Z,54.67
2023-05-22T22:52:21.462Z,47.80
2023-05-22T22:54:50.184Z,53.00
2023-05-22T22:57:20.053Z,49.20
2023-05-22T22:59:48.534Z,47.83
2023-05-22T23:02:16.914Z,48.97
2023-05-22T23:04:45.990Z,50.97
2023-05-22T23:07:15.366Z,46.93
2023-05-22T23:09:43.227Z,46.70
2023-05-22T23:12:12.668Z,45.77
2023-05-22T23:14:41.137Z,49.83
2023-05-22T23:17:10.566Z,48.47
2023-05-22T23:19:46.346Z,48.17
2023-05-22T23:22:17.811Z,45.63
2023-05-22T23:24:46.344Z,43.60
2023-05-22T23:27:15.342Z,46.57
2023-05-22T23:29:46.722Z,46.37
2023-05-22T23:32:15.562Z,43.80
2023-05-22T23:34:43.930Z,44.20
2023-05-22T23:37:12.994Z,46.20
2023-05-22T23:39:42.351Z,43.77
2023-05-22T23:42:12.033Z,46.40
2023-05-22T23:44:41.713Z,48.90
2023-05-22T23:47:10.419Z,42.60
2023-05-22T23:49:38.575Z,43.13
2023-05-22T23:52:09.081Z,45.83
2023-05-22T23:54:37.026Z,43.90
2023-05-22T23:57:07.518Z,42.30
2023-05-22T23:59:41.010Z,43.93
